ADDS TAF Board (Experimental) INFO

IDs: Format: Expanded Condensed

Updated at: 1758 UTC 20 Sep 2014

KSFO - San Francisco Intl, CA, US

Issued at 1728 UTC 20 Sep 2014
Time1756Z20/18Z20/19Z20/20Z20/21Z20/22Z20/23Z21/00Z21/01Z21/02Z21/03Z21/04Z21/05Z21/06Z
TypeOBSPRVLPRVLPRVLPRVLPRVLPRVLPRVLPRVLPRVLPRVLPRVLPRVLPRVL
VIS10>6>6>6>6>6>6>6>6>6>6>6>6>6
CIG----------------------------
CoverSCTFEWFEWFEWSCTSCTSCTSCTSCTSCTSCTSCTSCTSCT
FltCat--VFRVFRVFRVFRVFRVFRVFRVFRVFRVFRVFRVFRVFR
WX----------------------------
WDir10290290290290290290290290290290290290290
WSpd310101016161616161616888
WGst----------------------------
R01/19
XWnd110101016161616161616888
HWnd3-1-1-1-2-2-2-2-2-2-2-1-1-1
R10/28
XWnd3-1-1-1-2-2-2-2-2-2-2-1-1-1
HWnd-1-10-10-10-16-16-16-16-16-16-16-8-8-8
Raw TAF
KSFO 201728Z 2018/2124 29010KT P6SM FEW008
  FM202100 29016KT P6SM FEW008 SCT010
  FM210400 29008KT P6SM SCT010
  FM210800 29006KT P6SM BKN008


Raw METAR
KSFO 201756Z 01003KT 10SM FEW008 SCT013 SCT015 22/17 A2995 RMK AO2 SLP140 T02170167 10217 20178 51007 $
KSFO 201656Z 00000KT 10SM FEW007 SCT010 OVC012 20/16 A2994 RMK AO2 SLP138 T02000161 $

TAF Board Legend

Hazard VFR MVFR IFR LIFR
Visibility (sm) >5 3≤X≤5 1≤X<3 <1
Ceiling (100 ft) >30 10≤X≤30 5≤X<10 <5
Wind Speed (kt) <10 10≤X<20 20≤X<30 ≥30
Wind Gust (kt) <15 15≤X<25 25≤X<35 ≥35
Weather No Wx Reported VCTS,-TS,-FZRA TS,FZRA +TS,+FZRA


Page loaded:  17:58 UTC  |   10:58 AM Pacific  |   11:58 AM Mountain  |   12:58 PM Central  |   01:58 PM Eastern

 

ADVISORIES

FORECASTS

FORECASTS

OBSERVATIONS

USER TOOLS

ABOUT US